Time;durP1;ratioP1;P1;durP2;ratioP2;P2;SDS_P1;SDS_P2;PMS_P1;PMS_P2;Temp;Humidity;BMP_temperature;BMP_pressure;BME280_temperature;BME280_humidity;BME280_pressure;Samples;Min_cycle;Max_cycle;Signal;HPM_P1;HPM_P2
2021/03/27 00:01:00;;;;;;;110.95;61.90;;;7.20;91.50;;;;;;5102356;28;20465;-76
2021/03/27 00:03:41;;;;;;;106.07;59.47;;;7.20;91.80;;;;;;5121462;28;20020;-70
2021/03/27 00:06:25;;;;;;;110.20;60.70;;;7.10;91.80;;;;;;5122752;28;20067;-70
2021/03/27 00:09:10;;;;;;;119.68;61.45;;;7.10;92.20;;;;;;5121521;28;20011;-70
2021/03/27 00:12:02;;;;;;;119.15;60.55;;;7.20;92.00;;;;;;5121698;28;20038;-70
2021/03/27 00:14:50;;;;;;;114.10;58.25;;;7.20;92.00;;;;;;5102462;28;20401;-70
2021/03/27 00:17:25;;;;;;;113.22;56.08;;;7.20;92.00;;;;;;5120412;28;20111;-70
2021/03/27 00:20:00;;;;;;;105.13;54.97;;;7.20;91.90;;;;;;5105416;28;20035;-77
2021/03/27 00:22:29;;;;;;;;;;;7.00;92.10;;;;;;5122967;28;20032;-78
2021/03/27 00:24:58;;;;;;;94.72;52.05;;;7.00;92.30;;;;;;5121323;28;19911;-69
2021/03/27 00:28:09;;;;;;;96.78;51.75;;;6.90;92.60;;;;;;5119734;28;20020;-70
2021/03/27 00:30:50;;;;;;;86.25;49.75;;;6.90;93.00;;;;;;5019967;28;20044;-74
2021/03/27 00:33:17;;;;;;;87.28;50.38;;;6.90;93.00;;;;;;5019046;28;20076;-70
2021/03/27 00:35:57;;;;;;;86.00;49.70;;;7.00;93.30;;;;;;5020247;28;20030;-74
2021/03/27 00:38:47;;;;;;;85.20;49.25;;;7.00;93.50;;;;;;5001392;28;20022;-70
2021/03/27 00:41:19;;;;;;;85.57;49.45;;;7.00;93.30;;;;;;5018875;28;20038;-78
2021/03/27 00:43:51;;;;;;;83.25;48.65;;;7.00;93.10;;;;;;5019626;28;20030;-75
2021/03/27 00:46:18;;;;;;;88.65;49.35;;;6.80;93.10;;;;;;5020120;28;20049;-70
2021/03/27 00:48:59;;;;;;;81.30;48.55;;;6.80;93.30;;;;;;5018963;28;20038;-75
2021/03/27 00:51:35;;;;;;;82.15;49.25;;;6.80;93.40;;;;;;5016059;28;20369;-69
2021/03/27 00:54:15;;;;;;;84.07;49.45;;;6.80;93.40;;;;;;5000932;28;20045;-73
2021/03/27 00:57:01;;;;;;;83.40;47.92;;;6.70;93.70;;;;;;5004122;28;20030;-77
2021/03/27 00:59:31;;;;;;;82.05;48.40;;;6.70;93.90;;;;;;5020414;28;20101;-70
2021/03/27 01:02:01;;;;;;;81.00;48.90;;;6.80;93.40;;;;;;5017166;28;20041;-70
2021/03/27 01:04:31;;;;;;;77.60;46.22;;;6.60;93.80;;;;;;5019838;28;20022;-71
2021/03/27 01:07:02;;;;;;;80.45;47.42;;;6.50;94.20;;;;;;5048054;28;20024;-70
2021/03/27 01:09:34;;;;;;;79.30;48.47;;;6.40;94.40;;;;;;5079658;28;20031;-75
2021/03/27 01:12:09;;;;;;;76.72;48.17;;;6.40;94.50;;;;;;5078386;28;20504;-75
2021/03/27 01:14:40;;;;;;;;;;;6.40;94.50;;;;;;5085234;28;20032;-76
2021/03/27 01:17:08;;;;;;;80.93;47.38;;;6.40;94.60;;;;;;5085240;28;19943;-70
2021/03/27 01:19:39;;;;;;;82.05;50.72;;;6.30;94.60;;;;;;5083457;28;20024;-70
2021/03/27 01:22:11;;;;;;;80.57;49.83;;;6.30;94.90;;;;;;5081997;28;20017;-70
2021/03/27 01:24:37;;;;;;;78.57;47.72;;;6.20;95.50;;;;;;5083871;28;20021;-69
2021/03/27 01:27:10;;;;;;;80.80;47.92;;;6.20;95.90;;;;;;5081746;28;20165;-73
2021/03/27 01:29:41;;;;;;;82.10;47.65;;;6.30;95.50;;;;;;5084779;28;20032;-70
2021/03/27 01:32:13;;;;;;;72.43;46.67;;;6.30;95.50;;;;;;5083006;28;20021;-77
2021/03/27 01:34:45;;;;;;;77.53;48.47;;;6.30;95.30;;;;;;5081914;28;20029;-76
2021/03/27 01:37:25;;;;;;;77.93;47.72;;;6.40;95.30;;;;;;5083474;28;20035;-70
2021/03/27 01:40:13;;;;;;;83.18;50.45;;;6.40;95.10;;;;;;5085215;28;20025;-75
2021/03/27 01:43:12;;;;;;;80.25;48.63;;;6.40;95.40;;;;;;5084165;28;20016;-75
2021/03/27 01:46:12;;;;;;;81.90;47.65;;;6.40;95.50;;;;;;5083258;28;20024;-70
2021/03/27 01:48:49;;;;;;;74.65;45.33;;;6.40;95.50;;;;;;5084136;28;20040;-70
2021/03/27 01:51:33;;;;;;;71.95;44.33;;;6.30;95.50;;;;;;5082237;28;20038;-70
2021/03/27 01:54:07;;;;;;;64.65;40.47;;;6.30;95.50;;;;;;5083419;28;20470;-70
2021/03/27 01:56:53;;;;;;;60.38;39.00;;;6.30;96.40;;;;;;5080151;28;20119;-76
2021/03/27 01:59:42;;;;;;;61.45;39.13;;;6.30;96.60;;;;;;5073538;28;20045;-70
2021/03/27 02:02:23;;;;;;;64.53;41.47;;;6.30;96.50;;;;;;5105755;28;20051;-70
2021/03/27 02:05:14;;;;;;;71.50;44.08;;;6.20;96.80;;;;;;5123200;28;20020;-70
2021/03/27 02:07:55;;;;;;;69.97;43.05;;;6.20;96.60;;;;;;5121399;28;20350;-70
2021/03/27 02:10:39;;;;;;;76.47;46.85;;;6.20;96.50;;;;;;5122151;28;20016;-77
2021/03/27 02:13:47;;;;;;;80.25;51.05;;;6.10;96.30;;;;;;5124901;28;20028;-77
2021/03/27 02:16:34;;;;;;;75.05;48.53;;;6.10;96.50;;;;;;5021676;28;20152;-70
2021/03/27 02:19:33;;;;;;;65.25;43.78;;;6.10;96.30;;;;;;5004663;28;20487;-75
2021/03/27 02:22:37;;;;;;;66.72;43.40;;;6.10;95.70;;;;;;5021003;28;20121;-70
2021/03/27 02:25:24;;;;;;;70.18;45.22;;;6.00;96.30;;;;;;5015600;28;20049;-71
2021/03/27 02:28:04;;;;;;;67.45;43.75;;;6.00;96.30;;;;;;5020926;28;20530;-70
2021/03/27 02:30:46;;;;;;;68.22;45.50;;;5.90;96.20;;;;;;5021034;28;20037;-70
2021/03/27 02:33:25;;;;;;;84.97;52.78;;;5.90;96.40;;;;;;5020710;28;20070;-72
2021/03/27 02:36:23;;;;;;;69.95;44.33;;;5.90;96.40;;;;;;5021699;28;20030;-74
2021/03/27 02:39:16;;;;;;;70.50;45.95;;;5.90;96.40;;;;;;5015457;28;20498;-71
2021/03/27 02:42:07;;;;;;;70.50;45.38;;;5.90;96.70;;;;;;5004241;28;20069;-69
2021/03/27 02:44:41;;;;;;;65.45;41.75;;;5.90;96.60;;;;;;5004418;28;20103;-76
2021/03/27 02:47:32;;;;;;;66.78;42.90;;;5.80;96.60;;;;;;5020506;28;20220;-77
2021/03/27 02:50:44;;;;;;;65.85;41.92;;;5.80;96.80;;;;;;5021641;28;20533;-77
2021/03/27 02:53:38;;;;;;;67.78;43.33;;;5.80;96.50;;;;;;5060071;28;20118;-73
2021/03/27 02:56:22;;;;;;;70.13;42.47;;;5.70;96.60;;;;;;5122180;28;20048;-73
2021/03/27 02:59:19;;;;;;;66.53;42.87;;;5.70;96.80;;;;;;5121118;28;20031;-69
2021/03/27 03:01:52;;;;;;;68.30;44.85;;;5.70;96.90;;;;;;5090569;28;20048;-75
2021/03/27 03:04:50;;;;;;;71.20;46.92;;;5.60;96.80;;;;;;5080079;28;20031;-73
2021/03/27 03:07:57;;;;;;;79.82;48.97;;;5.50;97.00;;;;;;5081563;28;20044;-70
2021/03/27 03:10:30;;;;;;;77.25;47.80;;;5.50;96.90;;;;;;5072219;28;21088;-70
2021/03/27 03:13:16;;;;;;;68.72;43.53;;;5.40;97.00;;;;;;5081009;28;20039;-71
2021/03/27 03:15:50;;;;;;;61.78;39.20;;;5.50;97.10;;;;;;5080429;28;20048;-75
2021/03/27 03:18:42;;;;;;;59.30;35.95;;;5.50;97.00;;;;;;5081458;28;20051;-74
2021/03/27 03:21:26;;;;;;;51.45;33.33;;;5.50;96.90;;;;;;5081102;28;20612;-75
2021/03/27 03:24:14;;;;;;;59.55;34.47;;;5.50;96.90;;;;;;5078984;28;20074;-69
2021/03/27 03:26:46;;;;;;;56.25;34.20;;;5.50;97.00;;;;;;5079145;28;20031;-69
2021/03/27 03:29:49;;;;;;;58.58;35.78;;;5.40;97.00;;;;;;5081739;28;20005;-77
2021/03/27 03:32:37;;;;;;;55.67;34.28;;;5.40;97.10;;;;;;5080114;28;20103;-69
2021/03/27 03:35:34;;;;;;;59.78;35.55;;;5.50;97.10;;;;;;5079685;28;20024;-70
2021/03/27 03:38:15;;;;;;;53.80;35.40;;;5.40;97.40;;;;;;5081051;28;20449;-70
2021/03/27 03:41:15;;;;;;;54.47;35.22;;;5.40;97.70;;;;;;5080761;28;20063;-70
2021/03/27 03:43:59;;;;;;;53.17;35.05;;;5.40;97.40;;;;;;5078374;28;20028;-78
2021/03/27 03:46:40;;;;;;;53.80;33.05;;;5.40;97.50;;;;;;5076998;28;20532;-79
2021/03/27 03:49:44;;;;;;;52.00;33.45;;;5.50;97.30;;;;;;5078224;28;20051;-77
2021/03/27 03:52:33;;;;;;;54.08;34.35;;;5.50;97.20;;;;;;5074224;28;20036;-78
2021/03/27 03:55:13;;;;;;;55.40;35.45;;;5.50;97.40;;;;;;5080410;28;20032;-70
2021/03/27 03:58:06;;;;;;;56.28;35.95;;;5.40;97.40;;;;;;5079844;28;20021;-75
2021/03/27 04:00:41;;;;;;;57.80;37.08;;;5.50;97.40;;;;;;5080769;28;20034;-71
2021/03/27 04:03:14;;;;;;;;;;;5.50;97.50;;;;;;5101125;28;20397;-75
2021/03/27 04:06:08;;;;;;;171.43;86.68;;;5.20;98.10;;;;;;5098829;28;19911;-69
2021/03/27 04:08:58;;;;;;;92.68;51.20;;;5.10;98.20;;;;;;5088167;28;20032;-79
2021/03/27 04:11:54;;;;;;;75.65;44.42;;;5.10;98.30;;;;;;5100277;28;20055;-72
2021/03/27 04:14:59;;;;;;;62.35;38.17;;;5.10;98.30;;;;;;5098567;28;20024;-71
2021/03/27 04:17:48;;;;;;;66.25;38.53;;;5.10;98.20;;;;;;5092265;28;20044;-78
2021/03/27 04:20:21;;;;;;;62.00;36.17;;;5.00;98.10;;;;;;5097431;28;20042;-70
2021/03/27 04:22:58;;;;;;;61.22;38.30;;;5.00;98.20;;;;;;5100271;28;20355;-79
2021/03/27 04:25:38;;;;;;;56.78;36.13;;;4.80;98.20;;;;;;5100618;28;20107;-78
2021/03/27 04:28:22;;;;;;;61.08;37.63;;;4.80;98.50;;;;;;5100652;28;20457;-71
2021/03/27 04:30:59;;;;;;;53.72;35.35;;;4.80;98.40;;;;;;5100756;28;20032;-70
2021/03/27 04:34:03;;;;;;;68.72;43.85;;;4.80;98.30;;;;;;5102919;28;20428;-78
2021/03/27 04:36:54;;;;;;;62.90;40.15;;;4.80;98.20;;;;;;5087897;28;20101;-71
2021/03/27 04:39:32;;;;;;;61.17;38.85;;;4.60;98.60;;;;;;5100914;28;20020;-70
2021/03/27 04:42:07;;;;;;;62.97;39.17;;;4.70;98.60;;;;;;5098997;28;20374;-72
2021/03/27 04:44:45;;;;;;;71.45;45.53;;;4.60;98.60;;;;;;5101953;28;20028;-75
2021/03/27 04:47:28;;;;;;;68.78;42.28;;;4.50;98.70;;;;;;5098416;28;20489;-77
2021/03/27 04:50:24;;;;;;;70.38;44.30;;;4.40;98.80;;;;;;5099699;28;20426;-79
2021/03/27 04:53:13;;;;;;;69.82;43.65;;;4.40;98.90;;;;;;5101267;28;20037;-70
2021/03/27 04:55:45;;;;;;;67.95;42.67;;;4.40;98.80;;;;;;5104752;28;20001;-71
2021/03/27 04:58:48;;;;;;;86.55;47.38;;;4.40;99.00;;;;;;5096606;28;20032;-78
2021/03/27 05:01:41;;;;;;;84.53;49.25;;;4.40;99.00;;;;;;5102916;28;20073;-70
2021/03/27 05:04:33;;;;;;;68.55;42.28;;;4.50;99.10;;;;;;5120453;28;20534;-79
2021/03/27 05:07:21;;;;;;;68.63;41.00;;;4.60;98.70;;;;;;5118573;28;20031;-71
2021/03/27 05:10:12;;;;;;;65.28;41.28;;;4.60;98.70;;;;;;5119615;28;20364;-70
2021/03/27 05:13:13;;;;;;;63.58;40.00;;;4.70;98.40;;;;;;5117786;28;20026;-70
2021/03/27 05:15:50;;;;;;;66.88;40.00;;;4.70;98.50;;;;;;5121312;28;20063;-75
2021/03/27 05:18:54;;;;;;;61.47;38.10;;;4.60;98.70;;;;;;5119408;28;20031;-79
2021/03/27 05:21:37;;;;;;;63.78;38.50;;;4.80;98.50;;;;;;5118380;28;20091;-71
2021/03/27 05:24:13;;;;;;;66.88;41.10;;;4.80;98.40;;;;;;5103988;28;20020;-77
2021/03/27 05:26:45;;;;;;;64.13;40.25;;;4.80;98.20;;;;;;5118727;28;20031;-70
2021/03/27 05:29:31;;;;;;;62.65;38.47;;;4.70;98.20;;;;;;5121815;28;20026;-77
2021/03/27 05:32:16;;;;;;;80.63;49.30;;;4.80;98.00;;;;;;5066774;28;20096;-77
2021/03/27 05:34:52;;;;;;;92.35;56.92;;;4.70;98.10;;;;;;5101233;28;20020;-71
2021/03/27 05:37:34;;;;;;;87.97;55.22;;;4.80;98.50;;;;;;5102111;28;20023;-70
2021/03/27 05:40:25;;;;;;;90.80;55.28;;;4.90;98.30;;;;;;5121494;28;20028;-71
2021/03/27 05:43:28;;;;;;;72.00;44.13;;;5.00;97.90;;;;;;5099460;28;20068;-75
2021/03/27 05:46:20;;;;;;;61.55;40.17;;;5.20;97.60;;;;;;5120491;28;20032;-72
2021/03/27 05:48:58;;;;;;;60.60;39.10;;;5.30;97.30;;;;;;5101516;28;20031;-79
2021/03/27 05:52:00;;;;;;;62.95;38.15;;;5.40;97.30;;;;;;5121248;28;20032;-70
2021/03/27 05:54:46;;;;;;;61.15;38.10;;;5.40;97.90;;;;;;5117789;28;20028;-79
2021/03/27 05:57:34;;;;;;;62.40;38.10;;;5.50;98.10;;;;;;5101347;28;20027;-69
2021/03/27 06:00:00;;;;;;;63.35;41.63;;;5.60;97.90;;;;;;5121370;28;20094;-77
2021/03/27 06:02:53;;;;;;;71.95;42.17;;;5.80;97.60;;;;;;5123913;28;20503;-77
2021/03/27 06:05:51;;;;;;;70.93;45.45;;;5.90;97.40;;;;;;5122805;28;20181;-71
2021/03/27 06:08:26;;;;;;;70.95;45.15;;;6.00;96.80;;;;;;5120780;28;20011;-78
2021/03/27 06:11:21;;;;;;;76.32;46.92;;;6.20;96.20;;;;;;5120547;28;20042;-78
2021/03/27 06:13:47;;;;;;;;;;;6.20;95.80;;;;;;5104602;28;20573;-79
2021/03/27 06:16:19;;;;;;;83.60;49.60;;;6.20;95.70;;;;;;5104502;28;20365;-71
2021/03/27 06:19:19;;;;;;;75.78;48.47;;;6.30;96.00;;;;;;5124001;28;20020;-71
2021/03/27 06:22:15;;;;;;;288.95;120.38;;;6.40;95.90;;;;;;5071392;28;20082;-79
2021/03/27 06:25:07;;;;;;;96.40;55.60;;;6.40;96.20;;;;;;5103019;28;20032;-78
2021/03/27 06:27:39;;;;;;;91.38;56.30;;;6.70;95.50;;;;;;5123909;28;20019;-76
2021/03/27 06:30:29;;;;;;;80.20;49.10;;;6.80;95.70;;;;;;5125634;28;20358;-70
2021/03/27 06:33:01;;;;;;;81.88;50.45;;;7.00;94.70;;;;;;5126737;28;20020;-76
2021/03/27 06:35:56;;;;;;;94.15;56.75;;;7.10;95.30;;;;;;5124594;28;20046;-79
2021/03/27 06:38:35;;;;;;;78.05;48.80;;;7.30;95.40;;;;;;5124861;28;20083;-79
2021/03/27 06:41:25;;;;;;;84.03;51.63;;;7.50;94.80;;;;;;5123992;28;20027;-77
2021/03/27 06:44:06;;;;;;;81.57;49.65;;;7.50;94.70;;;;;;5122318;28;20020;-76
2021/03/27 06:46:59;;;;;;;105.10;63.10;;;7.60;94.40;;;;;;5122199;28;20059;-71
2021/03/27 06:50:12;;;;;;;140.60;77.65;;;7.60;94.80;;;;;;5119831;28;20073;-73
2021/03/27 06:53:12;;;;;;;136.95;76.15;;;7.70;94.90;;;;;;5121158;28;20078;-77
2021/03/27 06:55:57;;;;;;;121.65;75.60;;;7.90;95.00;;;;;;5103629;28;20034;-74
2021/03/27 06:58:45;;;;;;;138.25;79.80;;;8.00;94.70;;;;;;5118699;28;20538;-69
2021/03/27 07:01:26;;;;;;;169.60;102.80;;;8.20;94.00;;;;;;5119711;28;20062;-69
2021/03/27 07:04:31;;;;;;;170.77;106.05;;;8.20;93.60;;;;;;5123843;28;20051;-78
2021/03/27 07:07:30;;;;;;;163.63;105.57;;;8.40;93.40;;;;;;5084850;28;20028;-74
2021/03/27 07:10:33;;;;;;;152.40;98.65;;;8.60;93.10;;;;;;5100709;28;20492;-80
2021/03/27 07:13:14;;;;;;;154.38;101.30;;;8.80;92.70;;;;;;5119482;28;20342;-78
2021/03/27 07:15:52;;;;;;;138.90;92.07;;;9.00;93.30;;;;;;5102049;28;20024;-71
2021/03/27 07:18:43;;;;;;;137.75;89.57;;;9.10;91.80;;;;;;5101176;28;20015;-69
2021/03/27 07:21:27;;;;;;;118.45;80.45;;;9.40;92.60;;;;;;5101345;28;20538;-78
2021/03/27 07:24:14;;;;;;;110.88;72.40;;;9.50;92.80;;;;;;5120332;28;20465;-70
2021/03/27 07:27:17;;;;;;;107.95;70.75;;;9.60;91.30;;;;;;5119587;28;20015;-69
2021/03/27 07:30:01;;;;;;;99.85;68.15;;;9.60;92.00;;;;;;5118490;28;20425;-73
2021/03/27 07:32:33;;;;;;;87.43;56.53;;;9.80;92.10;;;;;;5117399;28;20018;-69
2021/03/27 07:35:22;;;;;;;109.78;67.22;;;10.10;90.50;;;;;;5119835;28;20020;-71
2021/03/27 07:38:25;;;;;;;88.47;55.72;;;10.20;91.10;;;;;;5067518;28;20072;-70
2021/03/27 07:40:58;;;;;;;102.40;58.78;;;10.50;90.60;;;;;;5101361;28;20021;-78
2021/03/27 07:43:55;;;;;;;66.20;42.58;;;10.80;89.80;;;;;;5120114;28;20019;-78
2021/03/27 07:46:56;;;;;;;56.60;37.40;;;10.90;83.30;;;;;;5101249;28;20019;-75
2021/03/27 07:49:47;;;;;;;60.08;36.83;;;10.90;87.60;;;;;;5119651;28;20077;-72
2021/03/27 07:53:12;;;;;;;57.38;38.92;;;11.10;87.60;;;;;;5100426;28;20054;-69
2021/03/27 07:55:43;;;;;;;59.00;39.28;;;11.20;88.30;;;;;;5077132;28;20044;-77
2021/03/27 07:58:12;;;;;;;52.88;37.13;;;11.30;87.90;;;;;;5101536;28;20023;-71
2021/03/27 08:01:19;;;;;;;48.88;33.30;;;11.60;86.70;;;;;;5121018;28;20019;-70
2021/03/27 08:04:11;;;;;;;46.20;32.25;;;11.70;88.10;;;;;;5016118;28;20201;-77
2021/03/27 08:06:53;;;;;;;109.20;65.10;;;11.90;83.40;;;;;;5017343;28;20022;-74
2021/03/27 08:09:35;;;;;;;261.98;138.68;;;11.80;85.10;;;;;;5094602;28;20058;-71
2021/03/27 08:12:16;;;;;;;63.72;38.80;;;11.90;85.10;;;;;;5118575;28;20025;-76
2021/03/27 08:14:51;;;;;;;61.80;38.20;;;12.20;83.80;;;;;;5102533;28;20027;-78
2021/03/27 08:17:36;;;;;;;;;;;12.30;83.80;;;;;;5101712;28;20071;-69
2021/03/27 08:20:17;;;;;;;58.33;40.65;;;12.50;81.90;;;;;;5100167;28;19903;-71
2021/03/27 08:22:55;;;;;;;46.85;30.38;;;12.70;82.80;;;;;;5117909;28;20541;-70
2021/03/27 08:25:30;;;;;;;43.60;29.60;;;13.00;80.00;;;;;;5100889;28;20030;-72
2021/03/27 08:28:18;;;;;;;44.75;31.33;;;13.40;82.50;;;;;;5102144;28;20019;-76
2021/03/27 08:30:55;;;;;;;45.60;31.40;;;13.50;78.70;;;;;;5120485;28;20095;-76
2021/03/27 08:34:03;;;;;;;61.65;41.00;;;13.80;77.60;;;;;;5102597;28;20453;-69
2021/03/27 08:36:59;;;;;;;36.42;25.95;;;13.90;74.50;;;;;;5120958;28;20028;-70
2021/03/27 08:39:37;;;;;;;56.65;36.13;;;14.10;69.40;;;;;;5122570;28;20415;-70
2021/03/27 08:42:21;;;;;;;73.18;40.25;;;14.50;69.20;;;;;;5120219;28;20012;-76
2021/03/27 08:45:18;;;;;;;90.95;45.95;;;14.50;68.70;;;;;;5122832;28;20473;-71
2021/03/27 08:48:05;;;;;;;38.47;27.77;;;14.60;69.10;;;;;;5119157;28;20024;-78
2021/03/27 08:50:53;;;;;;;39.72;27.08;;;14.90;64.60;;;;;;5100879;28;20028;-77
2021/03/27 08:53:37;;;;;;;40.05;27.27;;;15.00;63.40;;;;;;5118951;28;20018;-73
2021/03/27 08:56:32;;;;;;;43.35;28.92;;;15.20;64.30;;;;;;5106617;28;20377;-80
2021/03/27 08:59:13;;;;;;;40.55;27.83;;;15.30;69.40;;;;;;5122319;28;20060;-79
2021/03/27 09:01:57;;;;;;;75.90;43.50;;;15.50;65.70;;;;;;5119915;28;20063;-69
2021/03/27 09:04:34;;;;;;;52.15;34.70;;;15.90;65.10;;;;;;5120530;28;20023;-79
2021/03/27 09:07:25;;;;;;;97.97;52.95;;;15.60;61.00;;;;;;5120943;28;20106;-70
2021/03/27 09:10:39;;;;;;;47.85;31.75;;;16.10;66.60;;;;;;5121969;28;20106;-72
2021/03/27 09:13:30;;;;;;;68.45;40.13;;;16.30;66.60;;;;;;5122146;28;20377;-78
2021/03/27 09:16:20;;;;;;;76.85;58.80;;;16.40;60.70;;;;;;5102645;28;20057;-76
2021/03/27 09:19:07;;;;;;;45.03;30.77;;;16.40;61.70;;;;;;5117655;28;20062;-70
2021/03/27 09:21:58;;;;;;;38.05;26.55;;;16.90;64.30;;;;;;5112417;28;20004;-69
2021/03/27 09:24:39;;;;;;;73.85;50.50;;;17.20;61.20;;;;;;5103582;28;20085;-71
2021/03/27 09:27:29;;;;;;;70.00;41.50;;;17.40;59.30;;;;;;5111077;28;20106;-72
2021/03/27 09:30:20;;;;;;;62.80;41.40;;;17.30;57.10;;;;;;5112660;28;20028;-68
2021/03/27 09:32:57;;;;;;;38.30;26.00;;;17.40;54.50;;;;;;5082767;28;20066;-68
2021/03/27 09:35:57;;;;;;;35.20;24.52;;;17.80;56.30;;;;;;5114748;28;20073;-68
2021/03/27 09:38:38;;;;;;;60.33;37.83;;;18.00;57.90;;;;;;5117200;28;20341;-79
2021/03/27 09:41:38;;;;;;;39.83;26.38;;;18.30;55.90;;;;;;5117280;28;20464;-69
2021/03/27 09:44:32;;;;;;;33.13;23.25;;;18.50;53.50;;;;;;5114998;28;20123;-67
2021/03/27 09:47:18;;;;;;;31.10;24.10;;;18.70;54.20;;;;;;5097917;28;20030;-69
2021/03/27 09:49:58;;;;;;;46.35;29.13;;;18.50;53.70;;;;;;5115913;28;20081;-68
2021/03/27 09:52:49;;;;;;;30.85;22.23;;;18.50;53.50;;;;;;5115338;28;20103;-69
2021/03/27 09:55:33;;;;;;;28.58;20.27;;;18.60;53.00;;;;;;5116714;28;20016;-68
2021/03/27 09:58:03;;;;;;;42.13;26.85;;;18.70;50.90;;;;;;5114961;28;20055;-70
2021/03/27 10:00:58;;;;;;;31.02;22.35;;;18.60;52.40;;;;;;5099078;28;20473;-70
2021/03/27 10:03:41;;;;;;;28.23;19.92;;;18.30;53.00;;;;;;5117638;28;20060;-68
2021/03/27 10:06:29;;;;;;;26.05;18.80;;;18.70;53.10;;;;;;5115269;28;20027;-69
2021/03/27 10:09:10;;;;;;;27.27;20.08;;;19.30;52.80;;;;;;5126151;28;20346;-75
2021/03/27 10:11:40;;;;;;;26.33;17.15;;;19.60;52.30;;;;;;5108738;28;20030;-71
2021/03/27 10:14:26;;;;;;;38.75;24.85;;;19.80;51.40;;;;;;5108327;28;20027;-71
2021/03/27 10:17:29;;;;;;;25.42;18.55;;;19.90;53.80;;;;;;5108366;28;20000;-70
2021/03/27 10:20:39;;;;;;;25.83;17.63;;;20.30;50.00;;;;;;5125790;28;20023;-70
2021/03/27 10:23:38;;;;;;;22.40;16.13;;;20.80;49.10;;;;;;5126555;28;20015;-73
2021/03/27 10:26:34;;;;;;;27.10;17.25;;;20.40;48.10;;;;;;5125676;28;20019;-78
2021/03/27 10:29:08;;;;;;;22.40;15.80;;;20.70;50.90;;;;;;5124733;28;20393;-69
2021/03/27 10:31:47;;;;;;;20.17;14.02;;;21.10;49.50;;;;;;5125484;28;20008;-72
2021/03/27 10:34:25;;;;;;;20.15;13.50;;;21.60;48.00;;;;;;5125191;28;20043;-79
2021/03/27 10:37:04;;;;;;;50.78;23.20;;;21.50;49.40;;;;;;5125176;28;20015;-78
2021/03/27 10:39:48;;;;;;;22.63;13.32;;;21.10;44.20;;;;;;5126886;28;20028;-70
2021/03/27 10:42:27;;;;;;;15.68;10.70;;;20.70;44.20;;;;;;5123125;28;20023;-68
2021/03/27 10:45:09;;;;;;;19.05;12.35;;;20.60;47.70;;;;;;5124873;28;20042;-78
2021/03/27 10:48:00;;;;;;;25.55;18.63;;;20.40;47.80;;;;;;5125313;28;20028;-71
2021/03/27 10:50:46;;;;;;;18.63;16.08;;;20.10;48.90;;;;;;5112649;28;20032;-70
2021/03/27 10:53:41;;;;;;;14.57;10.20;;;20.00;47.40;;;;;;5126676;28;20020;-79
2021/03/27 10:56:52;;;;;;;17.23;10.48;;;20.20;46.50;;;;;;5105856;28;20031;-71
2021/03/27 10:59:33;;;;;;;32.55;22.90;;;20.20;47.50;;;;;;5120326;28;20061;-75
2021/03/27 11:02:23;;;;;;;21.13;12.32;;;20.80;47.50;;;;;;5123386;28;20031;-69
2021/03/27 11:05:17;;;;;;;17.92;8.80;;;21.10;50.00;;;;;;5106365;28;20024;-77
2021/03/27 11:08:20;;;;;;;13.82;8.43;;;21.20;49.80;;;;;;5119255;28;20023;-68
2021/03/27 11:10:52;;;;;;;18.08;11.95;;;21.50;50.00;;;;;;5121823;28;20027;-68
2021/03/27 11:13:33;;;;;;;25.30;12.90;;;21.50;49.20;;;;;;5121310;28;20035;-74
2021/03/27 11:16:18;;;;;;;21.92;12.13;;;21.30;47.30;;;;;;5108883;28;20036;-76
2021/03/27 11:18:59;;;;;;;17.48;11.38;;;20.90;48.80;;;;;;5125891;28;20016;-70
2021/03/27 11:21:43;;;;;;;16.42;8.52;;;21.20;47.80;;;;;;5123539;28;20027;-68
2021/03/27 11:24:43;;;;;;;13.93;8.52;;;21.40;48.70;;;;;;5126212;28;20420;-73
2021/03/27 11:27:42;;;;;;;12.82;7.30;;;21.50;48.40;;;;;;5124871;28;20055;-73
2021/03/27 11:30:49;;;;;;;18.00;9.48;;;21.30;47.40;;;;;;5124632;28;20461;-70
2021/03/27 11:33:41;;;;;;;11.20;6.60;;;21.30;47.70;;;;;;5124626;28;20034;-71
2021/03/27 11:36:53;;;;;;;15.75;8.15;;;21.90;50.10;;;;;;5123740;28;20010;-73
2021/03/27 11:39:42;;;;;;;29.83;14.00;;;22.20;47.50;;;;;;5022796;28;20022;-70
2021/03/27 11:42:16;;;;;;;12.02;6.32;;;21.90;47.50;;;;;;5021419;28;20034;-70
2021/03/27 11:45:07;;;;;;;20.35;11.32;;;22.20;46.20;;;;;;5021113;28;20090;-80
2021/03/27 11:48:00;;;;;;;17.40;8.25;;;22.60;46.20;;;;;;5022488;28;20014;-71
2021/03/27 11:50:36;;;;;;;101.93;45.33;;;22.30;46.30;;;;;;5023340;28;20025;-74
2021/03/27 11:53:32;;;;;;;9.05;6.47;;;21.80;47.80;;;;;;5023505;28;20082;-71
2021/03/27 11:56:07;;;;;;;11.75;7.30;;;21.70;46.60;;;;;;5021398;28;20102;-77
2021/03/27 12:01:55;;;;;;;18.40;11.60;;;22.30;47.40;;;;;;5018875;28;20073;-69
2021/03/27 12:04:45;;;;;;;10.93;6.45;;;22.10;47.60;;;;;;5021789;28;20041;-70
2021/03/27 12:07:46;;;;;;;9.60;5.10;;;22.00;44.00;;;;;;5019870;28;20478;-74
2021/03/27 12:10:42;;;;;;;9.10;5.32;;;22.40;42.70;;;;;;5018934;28;20179;-76
2021/03/27 12:13:39;;;;;;;10.45;6.15;;;22.70;46.60;;;;;;5052159;28;20111;-77
2021/03/27 12:16:35;;;;;;;9.77;5.93;;;22.70;43.90;;;;;;5075500;28;20108;-72
2021/03/27 12:19:13;;;;;;;8.73;6.07;;;22.80;45.10;;;;;;5078485;28;20067;-74
2021/03/27 12:21:46;;;;;;;7.85;5.20;;;23.10;49.10;;;;;;5082787;28;20103;-79
2021/03/27 12:24:26;;;;;;;28.05;14.13;;;23.10;46.20;;;;;;5080894;28;20025;-70
2021/03/27 12:27:15;;;;;;;13.75;6.30;;;23.30;45.60;;;;;;5078572;28;20028;-68
2021/03/27 12:29:44;;;;;;;9.55;5.05;;;23.50;46.90;;;;;;5079218;28;20470;-72
2021/03/27 12:32:36;;;;;;;7.35;4.68;;;23.20;46.10;;;;;;5080813;28;20052;-69
2021/03/27 12:35:11;;;;;;;61.17;26.92;;;23.10;46.60;;;;;;5083674;28;20021;-73
2021/03/27 12:38:08;;;;;;;64.68;27.60;;;22.40;46.00;;;;;;5083056;28;20001;-67
2021/03/27 12:40:55;;;;;;;21.33;8.82;;;21.80;42.80;;;;;;5078127;28;20084;-66
2021/03/27 12:43:25;;;;;;;20.23;8.70;;;21.30;44.50;;;;;;5080026;28;20432;-77
2021/03/27 12:46:17;;;;;;;18.15;7.07;;;21.10;48.90;;;;;;5081218;28;20090;-76
2021/03/27 12:49:07;;;;;;;12.45;6.20;;;20.90;48.50;;;;;;5081014;28;20024;-69
2021/03/27 12:51:51;;;;;;;11.02;5.88;;;20.80;49.70;;;;;;5083270;28;20388;-68
2021/03/27 12:54:40;;;;;;;8.25;5.28;;;20.50;50.50;;;;;;5081104;28;20087;-77
2021/03/27 12:57:17;;;;;;;8.43;5.03;;;20.50;48.30;;;;;;5081251;28;20020;-78
2021/03/27 12:59:53;;;;;;;11.82;5.40;;;20.30;48.00;;;;;;5080285;28;20028;-72
2021/03/27 13:02:28;;;;;;;13.45;5.95;;;20.30;47.10;;;;;;5104980;28;20077;-78
2021/03/27 13:05:12;;;;;;;8.98;4.88;;;20.20;50.70;;;;;;5118989;28;20008;-70
2021/03/27 13:08:16;;;;;;;8.35;5.80;;;20.10;47.70;;;;;;5100477;28;20060;-71
2021/03/27 13:11:17;;;;;;;20.13;11.10;;;20.20;46.50;;;;;;5107891;28;20030;-74
2021/03/27 13:14:24;;;;;;;9.02;5.95;;;20.20;48.20;;;;;;5022714;28;20034;-74
2021/03/27 13:16:54;;;;;;;14.68;9.10;;;20.30;49.80;;;;;;5096651;28;20044;-79
2021/03/27 13:19:43;;;;;;;21.02;11.43;;;20.40;48.20;;;;;;5109030;28;20024;-76
2021/03/27 13:22:19;;;;;;;17.85;8.13;;;20.80;46.60;;;;;;5109225;28;20122;-79
2021/03/27 13:24:57;;;;;;;7.40;5.10;;;21.40;47.20;;;;;;5125437;28;20020;-72
2021/03/27 13:27:31;;;;;;;8.93;5.75;;;21.90;46.90;;;;;;5105559;28;20028;-70
2021/03/27 13:30:20;;;;;;;7.20;4.88;;;22.00;46.00;;;;;;5123195;28;20036;-69
2021/03/27 13:33:21;;;;;;;7.95;4.57;;;22.20;45.60;;;;;;5125104;28;20011;-77
2021/03/27 13:35:50;;;;;;;8.27;5.00;;;22.60;46.30;;;;;;5119497;28;20377;-76
2021/03/27 13:38:44;;;;;;;7.47;4.93;;;22.30;44.40;;;;;;5123859;28;20377;-78
2021/03/27 13:41:36;;;;;;;8.52;6.18;;;21.90;44.50;;;;;;5122965;28;20023;-76
2021/03/27 13:44:12;;;;;;;6.70;5.07;;;21.40;46.90;;;;;;5089543;28;20393;-76
2021/03/27 13:47:12;;;;;;;9.95;5.43;;;21.40;46.60;;;;;;5122423;28;20076;-69
2021/03/27 13:49:53;;;;;;;11.32;5.97;;;21.20;45.70;;;;;;5124760;28;20027;-71
2021/03/27 13:52:30;;;;;;;8.75;4.97;;;20.90;46.00;;;;;;5123732;28;20058;-69
2021/03/27 13:55:16;;;;;;;12.45;7.78;;;21.20;47.40;;;;;;5124015;28;20020;-72
2021/03/27 13:58:00;;;;;;;8.15;5.25;;;21.30;46.50;;;;;;5106494;28;20024;-77
2021/03/27 14:00:39;;;;;;;10.95;7.15;;;21.00;43.90;;;;;;5105981;28;20031;-76
2021/03/27 14:03:29;;;;;;;49.00;41.25;;;20.70;44.80;;;;;;5123428;28;20047;-77
2021/03/27 14:06:37;;;;;;;13.48;9.70;;;20.80;45.60;;;;;;5125095;28;20028;-74
2021/03/27 14:09:09;;;;;;;7.03;5.10;;;21.00;48.50;;;;;;5083848;28;20016;-71
2021/03/27 14:12:02;;;;;;;8.95;5.00;;;20.90;47.30;;;;;;5100222;28;20070;-76
2021/03/27 14:15:03;;;;;;;9.20;5.00;;;20.80;45.90;;;;;;5117651;28;20020;-69